Time;durP1;ratioP1;P1;durP2;ratioP2;P2;SDS_P1;SDS_P2;PMS_P1;PMS_P2;Temp;Humidity;BMP_temperature;BMP_pressure;BME280_temperature;BME280_humidity;BME280_pressure;Samples;Min_cycle;Max_cycle;Signal;HPM_P1;HPM_P2
2024/01/14 00:01:20;;;;;;;;;;;0.50;99.90;;;;;;5116790;28;20344;-76
2024/01/14 00:03:45;;;;;;;;;;;0.50;99.90;;;;;;5116475;28;19915;-77
2024/01/14 00:06:11;;;;;;;;;;;0.50;99.90;;;;;;5116557;27;20287;-76
2024/01/14 00:08:36;;;;;;;;;;;0.50;99.90;;;;;;5114613;28;20391;-77
2024/01/14 00:11:02;;;;;;;;;;;0.50;99.90;;;;;;5112389;28;19915;-77
2024/01/14 00:13:28;;;;;;;;;;;0.50;99.90;;;;;;5107434;28;20017;-77
2024/01/14 00:15:53;;;;;;;;;;;0.60;99.90;;;;;;5113052;28;19943;-77
2024/01/14 00:18:19;;;;;;;;;;;0.60;99.90;;;;;;5116573;28;19914;-76
2024/01/14 00:20:44;;;;;;;;;;;0.60;99.90;;;;;;5116270;28;19939;-76
2024/01/14 00:23:10;;;;;;;;;;;0.60;99.90;;;;;;5116547;28;19911;-77
2024/01/14 00:25:35;;;;;;;;;;;0.60;99.90;;;;;;5116298;27;20438;-76
2024/01/14 00:28:02;;;;;;;;;;;0.60;99.90;;;;;;5115166;28;20333;-75
2024/01/14 00:30:27;;;;;;;;;;;0.60;99.90;;;;;;5116201;28;19915;-76
2024/01/14 00:32:53;;;;;;;;;;;0.60;99.90;;;;;;5113398;28;19998;-76
2024/01/14 00:35:18;;;;;;;;;;;0.60;99.90;;;;;;5115923;28;19950;-76
2024/01/14 00:37:44;;;;;;;;;;;0.70;99.90;;;;;;5114962;28;19910;-76
2024/01/14 00:40:10;;;;;;;;;;;0.70;99.90;;;;;;5115634;28;20413;-77
2024/01/14 00:42:36;;;;;;;;;;;0.80;99.90;;;;;;5118742;28;19910;-76
2024/01/14 00:45:02;;;;;;;;;;;0.80;99.90;;;;;;5120025;28;19917;-76
2024/01/14 00:47:30;;;;;;;;;;;0.70;99.90;;;;;;5120463;28;19975;-76
2024/01/14 00:49:58;;;;;;;;;;;0.70;99.90;;;;;;5119055;28;19911;-76
2024/01/14 00:52:24;;;;;;;;;;;0.70;99.90;;;;;;5120331;28;19916;-75
2024/01/14 00:54:49;;;;;;;;;;;0.60;99.90;;;;;;5119800;28;20806;-75
2024/01/14 00:57:15;;;;;;;;;;;0.60;99.90;;;;;;5117449;28;19990;-75
2024/01/14 00:59:40;;;;;;;;;;;0.50;99.90;;;;;;5114822;28;19904;-75
2024/01/14 01:02:06;;;;;;;;;;;0.50;99.90;;;;;;5120071;28;19904;-76
2024/01/14 01:04:32;;;;;;;;;;;0.50;99.90;;;;;;5118832;28;20397;-76
2024/01/14 01:06:57;;;;;;;;;;;0.50;99.90;;;;;;5118476;28;19919;-76
2024/01/14 01:09:23;;;;;;;;;;;0.50;99.90;;;;;;5119956;28;19908;-76
2024/01/14 01:11:48;;;;;;;;;;;0.50;99.90;;;;;;5119763;27;19908;-76
2024/01/14 01:14:15;;;;;;;;;;;0.50;99.90;;;;;;5120052;28;19938;-76
2024/01/14 01:16:40;;;;;;;;;;;0.50;99.90;;;;;;5119545;28;19911;-76
2024/01/14 01:19:06;;;;;;;;;;;0.40;99.90;;;;;;5118241;28;19908;-76
2024/01/14 01:21:31;;;;;;;;;;;0.40;99.90;;;;;;5118295;28;20462;-76
2024/01/14 01:23:57;;;;;;;;;;;0.40;99.90;;;;;;5119461;28;20376;-75
2024/01/14 01:26:23;;;;;;;;;;;0.40;99.90;;;;;;5118257;28;19974;-76
2024/01/14 01:28:48;;;;;;;;;;;0.40;99.90;;;;;;5117905;28;19912;-76
2024/01/14 01:31:14;;;;;;;;;;;0.40;99.90;;;;;;5117197;28;19911;-76
2024/01/14 01:33:39;;;;;;;;;;;0.40;99.90;;;;;;5114888;28;19907;-76
2024/01/14 01:36:06;;;;;;;;;;;0.40;99.90;;;;;;5118008;28;19911;-76
2024/01/14 01:38:32;;;;;;;;;;;0.40;99.90;;;;;;5119208;28;19903;-76
2024/01/14 01:40:58;;;;;;;;;;;0.50;99.90;;;;;;5119311;28;19907;-76
2024/01/14 01:43:23;;;;;;;;;;;0.60;99.90;;;;;;5118412;28;19908;-76
2024/01/14 01:45:49;;;;;;;;;;;0.60;99.90;;;;;;5117568;28;19923;-76
2024/01/14 01:48:15;;;;;;;;;;;0.60;99.90;;;;;;5118383;28;19998;-76
2024/01/14 01:50:42;;;;;;;;;;;0.60;99.90;;;;;;5117546;28;20295;-76
2024/01/14 01:53:08;;;;;;;;;;;0.50;99.90;;;;;;5118024;28;20347;-76
2024/01/14 01:55:33;;;;;;;;;;;0.60;99.90;;;;;;5118369;27;19967;-76
2024/01/14 01:57:59;;;;;;;;;;;0.60;99.90;;;;;;5119001;28;19908;-76
2024/01/14 02:00:25;;;;;;;;;;;0.60;99.90;;;;;;5118818;28;19990;-75
2024/01/14 02:02:52;;;;;;;;;;;0.60;99.90;;;;;;5117697;28;19920;-76
2024/01/14 02:05:18;;;;;;;;;;;0.60;99.90;;;;;;5118639;28;19914;-75
2024/01/14 02:07:44;;;;;;;;;;;0.70;99.90;;;;;;5119001;28;19907;-76
2024/01/14 02:10:10;;;;;;;;;;;0.60;99.90;;;;;;5118530;28;19915;-75
2024/01/14 02:12:35;;;;;;;;;;;0.60;99.90;;;;;;5117675;28;19929;-76
2024/01/14 02:15:01;;;;;;;;;;;0.60;99.90;;;;;;5118547;28;19910;-76
2024/01/14 02:17:27;;;;;;;;;;;0.60;99.90;;;;;;5118836;28;20332;-75
2024/01/14 02:19:52;;;;;;;;;;;0.70;99.90;;;;;;5118475;28;19915;-75
2024/01/14 02:22:22;;;;;;;;;;;0.70;99.90;;;;;;5117106;28;20059;-75
2024/01/14 02:24:47;;;;;;;;;;;0.80;99.90;;;;;;5116433;28;19904;-75
2024/01/14 02:27:13;;;;;;;;;;;0.80;99.90;;;;;;5118484;28;19911;-75
2024/01/14 02:29:40;;;;;;;;;;;0.80;99.90;;;;;;5116382;28;19915;-75
2024/01/14 02:32:05;;;;;;;;;;;0.80;99.90;;;;;;5117294;28;19951;-75
2024/01/14 02:34:32;;;;;;;;;;;0.80;99.90;;;;;;5116916;28;19907;-76
2024/01/14 02:36:58;;;;;;;;;;;0.80;99.90;;;;;;5117135;28;19907;-76
2024/01/14 02:39:23;;;;;;;;;;;0.90;99.90;;;;;;5116968;28;20428;-76
2024/01/14 02:41:49;;;;;;;;;;;0.90;99.90;;;;;;5117224;28;20002;-75
2024/01/14 02:44:15;;;;;;;;;;;1.00;99.90;;;;;;5117846;27;19904;-75
2024/01/14 02:46:41;;;;;;;;;;;1.00;99.90;;;;;;5116629;28;19915;-76
2024/01/14 02:49:06;;;;;;;;;;;1.00;99.90;;;;;;5118097;27;19912;-75
2024/01/14 02:51:32;;;;;;;;;;;1.00;99.90;;;;;;5118087;28;19904;-75
2024/01/14 02:53:57;;;;;;;;;;;1.00;99.90;;;;;;5117537;28;19912;-75
2024/01/14 02:56:23;;;;;;;;;;;1.10;99.90;;;;;;5117821;28;19916;-76
2024/01/14 02:58:48;;;;;;;;;;;1.10;99.90;;;;;;5103862;28;19908;-76
2024/01/14 03:01:14;;;;;;;;;;;1.10;99.90;;;;;;5110161;28;20329;-75
2024/01/14 03:03:39;;;;;;;;;;;1.00;99.90;;;;;;5109300;28;19904;-75
2024/01/14 03:06:05;;;;;;;;;;;1.00;99.90;;;;;;5110824;28;19950;-75
2024/01/14 03:08:31;;;;;;;;;;;1.00;99.90;;;;;;5116950;28;19915;-76
2024/01/14 03:10:56;;;;;;;;;;;0.90;99.90;;;;;;5116111;28;19918;-75
2024/01/14 03:13:22;;;;;;;;;;;0.90;99.90;;;;;;5116178;28;19908;-76
2024/01/14 03:15:47;;;;;;;;;;;0.80;99.90;;;;;;5117757;28;19914;-75
2024/01/14 03:18:13;;;;;;;;;;;0.80;99.90;;;;;;5102549;28;19953;-75
2024/01/14 03:20:38;;;;;;;;;;;0.90;99.90;;;;;;5116375;28;19907;-76
2024/01/14 03:23:04;;;;;;;;;;;1.00;99.90;;;;;;5117179;28;19979;-76
2024/01/14 03:25:30;;;;;;;;;;;1.10;99.90;;;;;;5117024;28;19904;-76
2024/01/14 03:27:55;;;;;;;;;;;1.10;99.90;;;;;;5117299;28;20003;-76
2024/01/14 03:30:21;;;;;;;;;;;1.10;99.90;;;;;;5116938;28;19919;-76
2024/01/14 03:32:46;;;;;;;;;;;1.20;99.90;;;;;;5117342;28;20391;-76
2024/01/14 03:35:12;;;;;;;;;;;1.10;99.90;;;;;;5116005;28;20370;-76
2024/01/14 03:37:37;;;;;;;;;;;1.10;99.90;;;;;;5115784;28;19960;-76
2024/01/14 03:40:03;;;;;;;;;;;1.10;99.90;;;;;;5116995;28;19937;-76
2024/01/14 03:42:29;;;;;;;;;;;1.10;99.90;;;;;;5116848;28;19990;-76
2024/01/14 03:44:55;;;;;;;;;;;1.00;99.90;;;;;;5115671;28;19911;-76
2024/01/14 03:47:21;;;;;;;;;;;1.00;99.90;;;;;;5115064;28;19903;-76
2024/01/14 03:49:46;;;;;;;;;;;1.00;99.90;;;;;;5115797;28;19915;-76
2024/01/14 03:52:12;;;;;;;;;;;1.00;99.90;;;;;;5116812;28;19907;-76
2024/01/14 03:54:37;;;;;;;;;;;1.00;99.90;;;;;;5115385;28;19912;-75
2024/01/14 03:57:03;;;;;;;;;;;1.00;99.90;;;;;;5116361;28;19924;-76
2024/01/14 03:59:28;;;;;;;;;;;1.00;99.90;;;;;;5115358;28;19911;-76
2024/01/14 04:01:54;;;;;;;;;;;0.90;99.90;;;;;;5101505;28;19915;-76
2024/01/14 04:04:19;;;;;;;;;;;0.90;99.90;;;;;;5099158;28;19911;-75
2024/01/14 04:06:45;;;;;;;;;;;0.90;99.90;;;;;;5114731;28;19904;-75
2024/01/14 04:09:10;;;;;;;;;;;0.90;99.90;;;;;;5116159;28;19914;-76
2024/01/14 04:11:36;;;;;;;;;;;0.90;99.90;;;;;;5114897;28;19992;-75
2024/01/14 04:14:02;;;;;;;;;;;1.00;99.90;;;;;;5116464;28;19904;-75
2024/01/14 04:16:35;;;;;;;;;;;0.90;99.90;;;;;;5114519;28;20375;-76
2024/01/14 04:19:00;;;;;;;;;;;0.90;99.90;;;;;;5103910;28;19910;-75
2024/01/14 04:21:26;;;;;;;;;;;0.90;99.90;;;;;;5116353;28;19904;-75
2024/01/14 04:23:51;;;;;;;;;;;0.90;99.90;;;;;;5114837;28;19908;-77
2024/01/14 04:26:21;;;;;;;;;;;0.80;99.90;;;;;;5116565;28;19968;-76
2024/01/14 04:28:47;;;;;;;;;;;0.80;99.90;;;;;;5116415;28;20002;-76
2024/01/14 04:31:12;;;;;;;;;;;0.80;99.90;;;;;;5116077;28;19919;-75
2024/01/14 04:33:38;;;;;;;;;;;0.70;99.90;;;;;;5116543;27;19908;-76
2024/01/14 04:36:04;;;;;;;;;;;0.70;99.90;;;;;;5116214;28;19943;-77
2024/01/14 04:38:29;;;;;;;;;;;0.70;99.90;;;;;;5114797;28;20029;-76
2024/01/14 04:40:55;;;;;;;;;;;0.70;99.90;;;;;;5113175;28;19915;-76
2024/01/14 04:43:21;;;;;;;;;;;0.60;99.90;;;;;;5104026;28;19998;-76
2024/01/14 04:45:46;;;;;;;;;;;0.60;99.90;;;;;;5114831;28;19958;-76
2024/01/14 04:48:12;;;;;;;;;;;0.60;99.90;;;;;;5116401;28;19947;-77
2024/01/14 04:50:39;;;;;;;;;;;0.60;99.90;;;;;;5115796;28;19993;-76
2024/01/14 04:53:05;;;;;;;;;;;0.60;99.90;;;;;;5114749;28;19957;-76
2024/01/14 04:55:31;;;;;;;;;;;0.60;99.90;;;;;;5115419;28;19904;-76
2024/01/14 04:57:57;;;;;;;;;;;0.70;99.90;;;;;;5114885;28;19929;-76
2024/01/14 05:00:22;;;;;;;;;;;0.70;99.90;;;;;;5115722;28;20384;-76
2024/01/14 05:02:48;;;;;;;;;;;0.70;99.90;;;;;;5116228;28;19903;-76
2024/01/14 05:05:14;;;;;;;;;;;0.80;99.90;;;;;;5115749;28;19904;-77
2024/01/14 05:07:40;;;;;;;;;;;0.80;99.90;;;;;;5114855;28;19961;-76
2024/01/14 05:10:06;;;;;;;;;;;0.80;99.90;;;;;;5115273;28;19912;-76
2024/01/14 05:12:32;;;;;;;;;;;0.80;99.90;;;;;;5116093;28;19919;-76
2024/01/14 05:14:57;;;;;;;;;;;0.90;99.90;;;;;;5115599;28;20284;-76
2024/01/14 05:17:23;;;;;;;;;;;0.90;99.90;;;;;;5116029;28;20002;-75
2024/01/14 05:19:48;;;;;;;;;;;0.90;99.90;;;;;;5114105;28;19990;-76
2024/01/14 05:22:14;;;;;;;;;;;1.00;99.90;;;;;;5115907;28;19908;-76
2024/01/14 05:24:43;;;;;;;;;;;1.10;99.90;;;;;;5115484;28;19907;-76
2024/01/14 05:27:10;;;;;;;;;;;1.10;99.90;;;;;;5116885;28;19904;-76
2024/01/14 05:29:38;;;;;;;;;;;1.10;99.90;;;;;;5119306;28;19918;-76
2024/01/14 05:32:04;;;;;;;;;;;1.20;99.90;;;;;;5118296;28;19903;-76
2024/01/14 05:34:30;;;;;;;;;;;1.30;99.90;;;;;;5119504;28;19914;-77
2024/01/14 05:36:55;;;;;;;;;;;1.30;99.90;;;;;;5118246;28;19919;-76
2024/01/14 05:39:21;;;;;;;;;;;1.30;99.90;;;;;;5117301;28;19914;-75
2024/01/14 05:41:46;;;;;;;;;;;1.40;99.90;;;;;;5119613;28;20333;-76
2024/01/14 05:44:12;;;;;;;;;;;1.50;99.90;;;;;;5119341;28;19903;-75
2024/01/14 05:46:38;;;;;;;;;;;1.50;99.90;;;;;;5116520;28;20307;-76
2024/01/14 05:49:04;;;;;;;;;;;1.50;99.90;;;;;;5119567;28;19914;-76
2024/01/14 05:51:30;;;;;;;;;;;1.50;99.90;;;;;;5118258;28;19994;-76
2024/01/14 05:53:56;;;;;;;;;;;1.60;99.90;;;;;;5118427;28;20403;-76
2024/01/14 05:56:26;;;;;;;;;;;1.60;99.90;;;;;;5117696;28;20422;-76
2024/01/14 05:58:52;;;;;;;;;;;1.60;99.90;;;;;;5118564;28;20410;-77
2024/01/14 06:01:17;;;;;;;;;;;1.70;99.90;;;;;;5117701;28;19904;-76
2024/01/14 06:03:43;;;;;;;;;;;1.70;99.90;;;;;;5117691;28;19910;-76
2024/01/14 06:06:08;;;;;;;;;;;1.70;99.90;;;;;;5117775;28;19911;-78
2024/01/14 06:08:34;;;;;;;;;;;1.70;99.90;;;;;;5113840;28;19916;-76
2024/01/14 06:11:01;;;;;;;;;;;1.70;99.90;;;;;;5099144;28;19979;-76
2024/01/14 06:13:27;;;;;;;;;;;1.70;99.90;;;;;;5106488;28;19908;-76
2024/01/14 06:15:52;;;;;;;;;;;1.80;99.90;;;;;;5111033;28;19904;-75
2024/01/14 06:18:18;;;;;;;;;;;1.80;99.90;;;;;;5116907;28;19903;-76
2024/01/14 06:20:44;;;;;;;;;;;1.80;99.90;;;;;;5118827;28;20368;-76
2024/01/14 06:23:09;;;;;;;;;;;1.80;99.90;;;;;;5118388;28;20279;-77
2024/01/14 06:25:35;;;;;;;;;;;1.90;99.90;;;;;;5118325;28;19903;-76
2024/01/14 06:28:01;;;;;;;;;;;1.90;99.90;;;;;;5118568;28;20371;-76
2024/01/14 06:30:26;;;;;;;;;;;1.90;99.90;;;;;;5117021;28;19916;-76
2024/01/14 06:32:55;;;;;;;;;;;1.90;99.90;;;;;;5117028;28;19957;-76
2024/01/14 06:35:21;;;;;;;;;;;2.00;99.90;;;;;;5118644;28;19911;-76
2024/01/14 06:37:47;;;;;;;;;;;2.00;99.90;;;;;;5117427;28;19908;-76
2024/01/14 06:40:12;;;;;;;;;;;2.00;99.90;;;;;;5115737;28;19953;-76
2024/01/14 06:42:38;;;;;;;;;;;2.10;99.90;;;;;;5118422;28;19904;-76
2024/01/14 06:45:04;;;;;;;;;;;2.10;99.90;;;;;;5118256;28;19904;-76
2024/01/14 06:47:29;;;;;;;;;;;2.10;99.90;;;;;;5117044;28;19961;-76
2024/01/14 06:49:55;;;;;;;;;;;2.10;99.90;;;;;;5118071;28;20267;-76
2024/01/14 06:52:22;;;;;;;;;;;2.10;99.90;;;;;;5117906;28;19903;-76
2024/01/14 06:54:49;;;;;;;;;;;2.10;99.90;;;;;;5096386;28;20390;-77
2024/01/14 06:57:14;;;;;;;;;;;2.10;99.90;;;;;;5095108;28;20296;-76
2024/01/14 06:59:42;;;;;;;;;;;2.10;99.90;;;;;;5097335;28;19912;-76
2024/01/14 07:02:08;;;;;;;;;;;2.10;99.90;;;;;;5091924;28;19908;-76
2024/01/14 07:04:33;;;;;;;;;;;2.10;99.90;;;;;;5093811;28;19915;-76
2024/01/14 07:06:59;;;;;;;;;;;2.10;99.90;;;;;;5102813;28;19958;-76
2024/01/14 07:09:24;;;;;;;;;;;2.10;99.90;;;;;;5094024;28;19912;-76
2024/01/14 07:11:50;;;;;;;;;;;2.20;99.90;;;;;;5092907;28;19912;-76
2024/01/14 07:14:15;;;;;;;;;;;2.20;99.90;;;;;;5112614;28;20364;-76
2024/01/14 07:16:41;;;;;;;;;;;2.20;99.90;;;;;;5095808;28;19953;-76
2024/01/14 07:19:06;;;;;;;;;;;2.20;99.90;;;;;;5110308;28;19907;-77
2024/01/14 07:21:32;;;;;;;;;;;2.30;99.90;;;;;;5109223;28;19907;-77
2024/01/14 07:23:58;;;;;;;;;;;2.30;99.90;;;;;;5099680;28;19961;-77
2024/01/14 07:26:23;;;;;;;;;;;2.30;99.90;;;;;;5098080;28;19908;-78
2024/01/14 07:28:51;;;;;;;;;;;2.40;99.90;;;;;;5092138;28;19916;-77
2024/01/14 07:31:20;;;;;;;;;;;2.30;99.90;;;;;;5097889;28;19910;-77
2024/01/14 07:33:50;;;;;;;;;;;2.30;99.90;;;;;;5111784;28;19914;-77
2024/01/14 07:36:16;;;;;;;;;;;2.20;99.90;;;;;;5098193;28;19943;-77
2024/01/14 07:38:42;;;;;;;;;;;2.20;99.90;;;;;;5101185;28;19927;-78
2024/01/14 07:41:09;;;;;;;;;;;2.20;99.90;;;;;;5093279;28;19912;-77
2024/01/14 07:43:35;;;;;;;;;;;2.10;99.90;;;;;;5112697;27;19957;-77
2024/01/14 07:46:00;;;;;;;;;;;2.10;99.90;;;;;;5099025;28;19912;-77
2024/01/14 07:48:26;;;;;;;;;;;2.00;99.90;;;;;;5102078;28;19904;-77
2024/01/14 07:50:54;;;;;;;;;;;2.00;99.90;;;;;;5092533;28;20328;-77
2024/01/14 07:53:21;;;;;;;;;;;2.10;99.90;;;;;;5091903;28;19908;-77
2024/01/14 07:55:46;;;;;;;;;;;2.20;99.90;;;;;;5092985;28;21364;-77
2024/01/14 07:58:12;;;;;;;;;;;2.30;99.90;;;;;;5105180;28;19918;-77
2024/01/14 08:00:38;;;;;;;;;;;2.30;99.90;;;;;;5095420;28;19920;-77
2024/01/14 08:03:04;;;;;;;;;;;2.40;99.90;;;;;;5092022;28;19998;-77
2024/01/14 08:05:29;;;;;;;;;;;2.50;99.90;;;;;;5099051;28;19939;-77
2024/01/14 08:07:55;;;;;;;;;;;2.50;99.90;;;;;;5091928;28;19912;-78
2024/01/14 08:10:21;;;;;;;;;;;2.60;99.90;;;;;;5091488;28;20768;-78
2024/01/14 08:12:47;;;;;;;;;;;2.60;99.90;;;;;;5099879;28;19915;-78
2024/01/14 08:15:12;;;;;;;;;;;2.70;99.90;;;;;;5107999;28;19962;-78
2024/01/14 08:17:38;;;;;;;;;;;2.80;99.90;;;;;;5092421;28;19961;-78
2024/01/14 08:20:05;;;;;;;;;;;2.90;99.90;;;;;;5092144;28;20303;-78
2024/01/14 08:22:31;;;;;;;;;;;3.00;99.90;;;;;;5091980;28;19908;-78
2024/01/14 08:24:56;;;;;;;;;;;3.10;99.90;;;;;;5092385;28;20265;-78
2024/01/14 08:27:22;;;;;;;;;;;3.10;99.90;;;;;;5091729;28;19979;-78
2024/01/14 08:29:47;;;;;;;;;;;3.10;99.90;;;;;;5095545;28;19915;-78
2024/01/14 08:32:13;;;;;;;;;;;3.00;99.90;;;;;;5097517;28;19908;-78
2024/01/14 08:34:38;;;;;;;;;;;3.10;99.90;;;;;;5098695;28;19908;-79
2024/01/14 08:37:04;;;;;;;;;;;3.10;99.90;;;;;;5096549;28;19958;-78
2024/01/14 08:39:29;;;;;;;;;;;3.20;99.90;;;;;;5094147;28;19915;-79
2024/01/14 08:41:55;;;;;;;;;;;3.30;99.90;;;;;;5091292;28;19919;-79
2024/01/14 08:44:20;;;;;;;;;;;3.30;99.90;;;;;;5096989;28;19908;-79
2024/01/14 08:46:48;;;;;;;;;;;3.40;99.90;;;;;;5100637;28;19907;-79
2024/01/14 08:49:13;;;;;;;;;;;3.40;99.90;;;;;;5097650;28;19975;-79
2024/01/14 08:51:42;;;;;;;;;;;3.40;99.90;;;;;;5096688;28;20871;-79
2024/01/14 08:54:07;;;;;;;;;;;3.50;99.90;;;;;;5097585;28;19916;-79
2024/01/14 08:56:33;;;;;;;;;;;3.50;99.90;;;;;;5099962;28;19945;-79
2024/01/14 08:58:59;;;;;;;;;;;3.60;99.90;;;;;;5100101;28;19998;-79
2024/01/14 09:01:24;;;;;;;;;;;3.70;99.90;;;;;;5091528;28;19914;-78
2024/01/14 09:03:50;;;;;;;;;;;3.80;99.90;;;;;;5106438;28;20304;-79
2024/01/14 09:06:16;;;;;;;;;;;3.90;99.90;;;;;;5100019;28;19908;-79
2024/01/14 09:08:42;;;;;;;;;;;4.00;99.90;;;;;;5095232;28;19907;-79
2024/01/14 09:11:10;;;;;;;;;;;4.10;99.90;;;;;;5104179;28;19911;-79
2024/01/14 09:13:36;;;;;;;;;;;4.20;99.90;;;;;;5097772;28;19908;-79
2024/01/14 09:16:02;;;;;;;;;;;4.30;99.90;;;;;;5099634;28;19914;-79
2024/01/14 09:18:27;;;;;;;;;;;4.40;99.90;;;;;;5101200;28;19923;-77
2024/01/14 09:20:53;;;;;;;;;;;4.40;99.90;;;;;;5095160;28;20002;-78
2024/01/14 09:23:18;;;;;;;;;;;4.50;99.90;;;;;;5093345;28;19915;-77
2024/01/14 09:25:45;;;;;;;;;;;4.60;99.90;;;;;;5096099;28;20008;-78
2024/01/14 09:28:11;;;;;;;;;;;4.70;99.90;;;;;;5096667;28;19994;-78
2024/01/14 09:30:36;;;;;;;;;;;4.80;99.90;;;;;;5103561;28;20021;-78
2024/01/14 09:33:02;;;;;;;;;;;4.90;99.90;;;;;;5106853;28;19915;-78
2024/01/14 09:35:27;;;;;;;;;;;4.90;99.90;;;;;;5100916;28;19915;-77
2024/01/14 09:37:53;;;;;;;;;;;5.00;99.90;;;;;;5106580;28;20709;-78
2024/01/14 09:40:18;;;;;;;;;;;5.00;99.90;;;;;;5101442;28;19908;-77
2024/01/14 09:42:44;;;;;;;;;;;5.00;99.90;;;;;;5094204;28;19908;-78
2024/01/14 09:45:10;;;;;;;;;;;5.10;99.90;;;;;;5107525;28;19908;-78
2024/01/14 09:47:36;;;;;;;;;;;5.20;99.90;;;;;;5107779;28;19910;-78
2024/01/14 09:50:02;;;;;;;;;;;5.30;99.90;;;;;;5101777;28;20431;-78
2024/01/14 09:52:29;;;;;;;;;;;5.40;99.90;;;;;;5110233;28;20380;-78
2024/01/14 09:54:54;;;;;;;;;;;5.50;99.90;;;;;;5092875;28;19958;-78
2024/01/14 09:57:20;;;;;;;;;;;5.60;99.90;;;;;;5094649;28;19971;-77
2024/01/14 09:59:48;;;;;;;;;;;5.60;99.90;;;;;;5094910;28;19930;-78
2024/01/14 10:02:14;;;;;;;;;;;5.80;99.90;;;;;;5096744;28;19908;-77
2024/01/14 10:04:40;;;;;;;;;;;5.90;99.90;;;;;;5094815;28;20003;-77
2024/01/14 10:07:09;;;;;;;;;;;6.00;99.90;;;;;;5095201;28;20014;-78
2024/01/14 10:09:35;;;;;;;;;;;6.10;99.90;;;;;;5103233;28;19984;-79
2024/01/14 10:12:01;;;;;;;;;;;6.20;99.90;;;;;;5099797;28;19907;-77
2024/01/14 10:14:27;;;;;;;;;;;6.30;99.90;;;;;;5103151;28;19951;-77
2024/01/14 10:16:57;;;;;;;;;;;6.40;99.90;;;;;;5096961;28;20002;-77
2024/01/14 10:19:23;;;;;;;;;;;6.50;99.90;;;;;;5101885;28;19989;-77
2024/01/14 10:21:51;;;;;;;;;;;6.60;99.90;;;;;;5094208;28;19908;-77
2024/01/14 10:24:17;;;;;;;;;;;6.70;99.90;;;;;;5094142;28;19908;-78
2024/01/14 10:26:42;;;;;;;;;;;6.70;99.90;;;;;;5099547;28;19911;-77
2024/01/14 10:29:08;;;;;;;;;;;6.80;99.90;;;;;;5093234;28;19923;-77
2024/01/14 10:31:33;;;;;;;;;;;6.90;99.90;;;;;;5099928;28;19908;-77
2024/01/14 10:34:02;;;;;;;;;;;7.00;99.90;;;;;;5102611;27;20010;-78
2024/01/14 10:36:28;;;;;;;;;;;7.10;99.90;;;;;;5094328;28;19908;-73
2024/01/14 10:39:01;;;;;;;;;;;7.30;99.90;;;;;;5104765;28;19939;-74
2024/01/14 10:41:27;;;;;;;;;;;7.30;99.90;;;;;;5107970;28;19918;-72
2024/01/14 10:43:52;;;;;;;;;;;7.40;99.90;;;;;;5105554;28;19908;-74
2024/01/14 10:46:18;;;;;;;;;;;7.50;99.90;;;;;;5105342;28;19950;-75
2024/01/14 10:48:48;;;;;;;;;;;7.60;99.90;;;;;;5108572;28;19908;-74
2024/01/14 10:51:16;;;;;;;;;;;7.70;99.90;;;;;;5105954;28;19908;-74
2024/01/14 10:53:47;;;;;;;;;;;7.90;99.90;;;;;;5114429;28;19908;-75
2024/01/14 10:56:15;;;;;;;;;;;8.10;99.90;;;;;;5106217;28;19915;-75
2024/01/14 10:58:41;;;;;;;;;;;8.20;99.90;;;;;;5115696;28;19912;-75
2024/01/14 11:01:07;;;;;;;;;;;8.40;99.90;;;;;;5114460;28;19903;-74
2024/01/14 11:03:33;;;;;;;;;;;8.60;99.90;;;;;;5111032;28;19999;-74
2024/01/14 11:05:59;;;;;;;;;;;8.90;99.90;;;;;;5111164;28;20019;-74
2024/01/14 11:08:25;;;;;;;;;;;8.90;99.90;;;;;;5107158;28;19912;-73
2024/01/14 11:10:52;;;;;;;;;;;9.00;99.90;;;;;;5111384;28;19908;-75
2024/01/14 11:13:32;;;;;;;;;;;9.10;99.90;;;;;;5114015;28;19911;-74
2024/01/14 11:15:58;;;;;;;;;;;9.20;99.90;;;;;;5114284;27;19908;-73
2024/01/14 11:18:29;;;;;;;;;;;9.20;99.90;;;;;;5109284;28;19967;-74
2024/01/14 11:21:01;;;;;;;;;;;9.30;99.90;;;;;;5112492;28;19990;-75
2024/01/14 11:23:26;;;;;;;;;;;9.30;99.90;;;;;;5105472;28;20427;-75
2024/01/14 11:25:54;;;;;;;;;;;9.40;99.90;;;;;;5113553;28;19903;-75
2024/01/14 11:28:20;;;;;;;;;;;9.40;99.90;;;;;;5111548;28;19908;-75
2024/01/14 11:30:55;;;;;;;;;;;9.40;99.90;;;;;;5109361;28;19915;-75
2024/01/14 11:33:46;;;;;;;;;;;9.40;99.90;;;;;;5104599;28;20284;-75
2024/01/14 11:36:12;;;;;;;;;;;9.50;99.90;;;;;;5100751;28;19915;-75
2024/01/14 11:38:54;;;;;;;;;;;9.60;99.90;;;;;;5103131;28;19912;-75
2024/01/14 11:41:24;;;;;;;;;;;9.70;99.90;;;;;;5101324;28;19908;-75
2024/01/14 11:44:13;;;;;;;;;;;9.70;99.90;;;;;;5102931;28;19908;-75
2024/01/14 11:46:40;;;;;;;;;;;9.70;99.90;;;;;;5099921;28;19969;-75
2024/01/14 11:49:10;;;;;;;;;;;9.70;99.90;;;;;;5101879;28;19915;-75
2024/01/14 11:51:39;;;;;;;;;;;9.60;99.90;;;;;;5106444;28;20012;-74
2024/01/14 11:54:10;;;;;;;;;;;9.70;99.90;;;;;;5102542;28;19907;-75
2024/01/14 11:56:36;;;;;;;;;;;9.60;99.90;;;;;;5104076;28;19920;-75
2024/01/14 11:59:09;;;;;;;;;;;9.70;99.90;;;;;;5105766;28;19915;-75
2024/01/14 12:01:34;;;;;;;;;;;9.70;99.90;;;;;;5102126;28;19915;-75
2024/01/14 12:04:01;;;;;;;;;;;9.70;99.90;;;;;;5102896;28;19912;-76
2024/01/14 12:06:26;;;;;;;;;;;9.80;99.90;;;;;;5102033;28;20272;-76
2024/01/14 12:09:01;;;;;;;;;;;9.90;99.90;;;;;;5101670;28;19941;-76
2024/01/14 12:11:27;;;;;;;;;;;10.00;99.90;;;;;;5104568;28;19934;-77
2024/01/14 12:13:52;;;;;;;;;;;10.30;99.90;;;;;;5097741;28;19907;-76
2024/01/14 12:16:18;;;;;;;;;;;10.40;99.90;;;;;;5105231;28;19911;-76
2024/01/14 12:18:44;;;;;;;;;;;10.60;99.90;;;;;;5105611;28;20251;-76
2024/01/14 12:21:09;;;;;;;;;;;10.70;99.90;;;;;;5104059;28;19904;-76
2024/01/14 12:23:35;;;;;;;;;;;10.80;99.90;;;;;;5103823;28;19915;-76
2024/01/14 12:26:06;;;;;;;;;;;10.90;99.90;;;;;;5108297;28;19999;-76
2024/01/14 12:28:32;;;;;;;;;;;11.00;99.90;;;;;;5102144;28;19912;-76
2024/01/14 12:30:58;;;;;;;;;;;11.10;99.90;;;;;;5106024;28;19936;-76
2024/01/14 12:33:24;;;;;;;;;;;11.20;99.90;;;;;;5103094;28;19938;-76
2024/01/14 12:35:49;;;;;;;;;;;11.20;99.90;;;;;;5102211;28;20021;-76
2024/01/14 12:38:15;;;;;;;;;;;11.30;99.90;;;;;;5101909;28;19911;-76
2024/01/14 12:40:41;;;;;;;;;;;11.40;99.90;;;;;;5104750;28;20026;-76
2024/01/14 12:43:09;;;;;;;;;;;11.60;99.90;;;;;;5101485;28;20390;-76
2024/01/14 12:45:35;;;;;;;;;;;11.80;99.90;;;;;;5106327;28;19907;-76
2024/01/14 12:48:01;;;;;;;;;;;12.10;99.90;;;;;;5102440;28;20431;-76
2024/01/14 12:50:28;;;;;;;;;;;12.30;99.90;;;;;;5106738;28;19911;-75
2024/01/14 12:52:57;;;;;;;;;;;12.50;99.90;;;;;;5102310;28;19907;-75
2024/01/14 12:55:28;;;;;;;;;;;12.60;99.90;;;;;;5104852;28;20401;-76
2024/01/14 12:57:54;;;;;;;;;;;12.70;99.90;;;;;;5101514;28;19919;-76
2024/01/14 13:00:20;;;;;;;;;;;12.80;99.90;;;;;;5103307;28;19907;-76
2024/01/14 13:02:45;;;;;;;;;;;12.80;99.90;;;;;;5104110;28;19911;-76
2024/01/14 13:05:11;;;;;;;;;;;12.80;99.90;;;;;;5100396;28;19908;-76
2024/01/14 13:07:36;;;;;;;;;;;12.80;99.90;;;;;;5102196;28;19939;-76
2024/01/14 13:10:02;;;;;;;;;;;12.90;99.90;;;;;;5102035;28;20088;-75
2024/01/14 13:12:28;;;;;;;;;;;12.90;99.90;;;;;;5102183;28;19954;-76
2024/01/14 13:14:54;;;;;;;;;;;12.90;99.90;;;;;;5104760;28;20206;-76
2024/01/14 13:17:19;;;;;;;;;;;12.90;99.90;;;;;;5106328;28;19907;-76
2024/01/14 13:19:45;;;;;;;;;;;12.90;99.90;;;;;;5106580;28;20719;-76
2024/01/14 13:22:10;;;;;;;;;;;12.90;99.90;;;;;;5102571;28;19911;-76
2024/01/14 13:24:36;;;;;;;;;;;12.90;99.90;;;;;;5097819;28;19907;-76
2024/01/14 13:27:01;;;;;;;;;;;12.80;99.90;;;;;;5105296;28;19908;-76
2024/01/14 13:29:27;;;;;;;;;;;12.90;99.90;;;;;;5107237;28;19911;-76
2024/01/14 13:31:53;;;;;;;;;;;12.80;99.90;;;;;;5106182;28;19907;-76
2024/01/14 13:34:18;;;;;;;;;;;12.80;99.90;;;;;;5106157;28;19947;-76
2024/01/14 13:36:44;;;;;;;;;;;12.80;99.90;;;;;;5107302;28;19951;-75
2024/01/14 13:39:09;;;;;;;;;;;12.80;99.90;;;;;;5101646;28;19998;-76
2024/01/14 13:41:35;;;;;;;;;;;12.80;99.90;;;;;;5105935;28;20014;-76
2024/01/14 13:44:01;;;;;;;;;;;12.90;99.90;;;;;;5099486;28;19911;-76
2024/01/14 13:46:26;;;;;;;;;;;12.90;99.90;;;;;;5104651;28;19903;-76
2024/01/14 13:48:52;;;;;;;;;;;13.00;99.90;;;;;;5102976;28;19912;-76
2024/01/14 13:51:19;;;;;;;;;;;13.00;99.90;;;;;;5104588;28;19947;-76
2024/01/14 13:53:45;;;;;;;;;;;13.10;99.90;;;;;;5109493;28;19914;-76
2024/01/14 13:56:10;;;;;;;;;;;13.10;99.90;;;;;;5106245;28;19923;-74
2024/01/14 13:58:36;;;;;;;;;;;13.30;99.90;;;;;;5104085;28;19907;-75
2024/01/14 14:01:01;;;;;;;;;;;13.40;99.90;;;;;;5109370;28;19912;-75
2024/01/14 14:03:28;;;;;;;;;;;13.60;99.90;;;;;;5104570;28;19908;-75
2024/01/14 14:05:53;;;;;;;;;;;13.70;99.90;;;;;;5108103;28;19915;-75
2024/01/14 14:08:19;;;;;;;;;;;13.90;99.90;;;;;;5101242;28;19911;-74
2024/01/14 14:10:44;;;;;;;;;;;13.80;99.90;;;;;;5099926;28;19912;-76
2024/01/14 14:13:09;;;;;;;;;;;13.70;99.90;;;;;;5108547;28;19916;-75
2024/01/14 14:15:35;;;;;;;;;;;13.60;99.90;;;;;;5103372;28;19907;-76
2024/01/14 14:18:01;;;;;;;;;;;13.50;99.90;;;;;;5096328;28;19912;-76
2024/01/14 14:20:26;;;;;;;;;;;13.40;99.90;;;;;;5105298;28;19930;-76
2024/01/14 14:22:52;;;;;;;;;;;13.30;99.90;;;;;;5105576;28;20432;-74